Southern Pines, North Carolina
Current Conditions -  °F | °C
As of 6:15 PM on Saturday 25 Oct 2014 (Local Time) from KSOP Reporting Station
Clear Clear  
Wind Chill: 64°   Ceiling: Unl
Heat Index: 64°   Visibility: 10mi
Dew Point: 43°   Wind: 3mph
Humidity: 45%   Direction: 270°W
Pressure: 29.92"   Gusts: NA
Location:  35.17°N, 79.39°W
Report Text: KSOP 252215Z AUTO 27003KT 10SM CLR 18/06 A2992 RMK AO1
Loading
Personal Weather Stations






























Interactive Weather Map
Tropical Storm Tracking
New forecast layout! Learn more

10-Day Weather Forecast

Advertisements
Track Severe Weather on mobile